Time;durP1;ratioP1;P1;durP2;ratioP2;P2;SDS_P1;SDS_P2;PMS_P1;PMS_P2;Temp;Humidity;BMP_temperature;BMP_pressure;BME280_temperature;BME280_humidity;BME280_pressure;Samples;Min_cycle;Max_cycle;Signal;HPM_P1;HPM_P2
2021/03/31 00:01:34;;;;;;;7.60;4.80;;;12.50;79.00;;;;;;5076129;28;20185;-49
2021/03/31 00:04:00;;;;;;;8.47;4.60;;;12.40;79.60;;;;;;5076614;28;20247;-47
2021/03/31 00:06:25;;;;;;;7.13;4.03;;;12.40;79.70;;;;;;5076307;28;20647;-57
2021/03/31 00:08:51;;;;;;;8.37;4.17;;;12.30;79.60;;;;;;5076825;28;20186;-50
2021/03/31 00:11:16;;;;;;;7.77;4.57;;;12.30;79.40;;;;;;5076185;28;20170;-57
2021/03/31 00:13:42;;;;;;;8.00;4.77;;;12.30;79.80;;;;;;5075851;28;20183;-56
2021/03/31 00:16:08;;;;;;;6.83;4.47;;;12.30;79.60;;;;;;5076407;28;20592;-49
2021/03/31 00:18:33;;;;;;;6.00;4.20;;;12.20;79.60;;;;;;5062523;28;20233;-56
2021/03/31 00:21:00;;;;;;;6.57;4.30;;;12.30;79.70;;;;;;5055589;28;20190;-53
2021/03/31 00:23:28;;;;;;;7.10;4.17;;;12.30;80.00;;;;;;5056097;28;20172;-49
2021/03/31 00:25:54;;;;;;;6.83;4.33;;;12.30;80.10;;;;;;5056155;28;20655;-48
2021/03/31 00:28:20;;;;;;;7.10;4.47;;;12.20;80.30;;;;;;5056072;28;20268;-57
2021/03/31 00:30:47;;;;;;;6.53;4.67;;;12.20;80.50;;;;;;5056649;28;20175;-47
2021/03/31 00:33:13;;;;;;;6.53;4.50;;;12.20;80.60;;;;;;5056175;28;20232;-47
2021/03/31 00:35:40;;;;;;;6.00;4.27;;;12.20;80.50;;;;;;5055669;28;20268;-47
2021/03/31 00:38:06;;;;;;;8.20;4.20;;;12.10;80.50;;;;;;5055784;28;20187;-58
2021/03/31 00:40:43;;;;;;;5.53;3.70;;;12.10;80.70;;;;;;5056451;28;20193;-50
2021/03/31 00:43:09;;;;;;;6.13;4.37;;;12.10;80.60;;;;;;5055910;28;20167;-48
2021/03/31 00:45:35;;;;;;;5.87;4.20;;;12.10;80.90;;;;;;5056262;28;20195;-48
2021/03/31 00:48:01;;;;;;;8.47;4.77;;;12.10;80.80;;;;;;5055640;28;20218;-47
2021/03/31 00:50:27;;;;;;;6.37;4.30;;;12.10;80.90;;;;;;5055740;28;20198;-59
2021/03/31 00:52:54;;;;;;;8.33;4.40;;;12.10;81.10;;;;;;5055267;28;20274;-56
2021/03/31 00:55:24;;;;;;;6.97;4.50;;;12.10;81.30;;;;;;5056447;28;20217;-58
2021/03/31 00:57:51;;;;;;;5.43;4.07;;;12.00;81.20;;;;;;5056148;28;20254;-56
2021/03/31 01:00:17;;;;;;;6.73;4.23;;;12.00;81.50;;;;;;5055959;28;20172;-58
2021/03/31 01:02:42;;;;;;;7.53;4.37;;;11.90;81.50;;;;;;5055323;28;20596;-59
2021/03/31 01:05:12;;;;;;;6.37;4.57;;;11.90;82.00;;;;;;5055419;28;20706;-47
2021/03/31 01:07:38;;;;;;;6.77;4.53;;;11.90;82.30;;;;;;5053942;28;20568;-49
2021/03/31 01:10:04;;;;;;;9.73;4.93;;;11.80;82.30;;;;;;5055120;28;20167;-57
2021/03/31 01:12:47;;;;;;;8.00;4.53;;;11.80;82.50;;;;;;5055631;28;20183;-59
2021/03/31 01:15:15;;;;;;;5.47;4.17;;;11.80;82.60;;;;;;5054967;28;20183;-46
2021/03/31 01:17:54;;;;;;;6.17;4.47;;;11.70;82.80;;;;;;5055145;28;20225;-47
2021/03/31 01:20:33;;;;;;;4.93;4.37;;;11.70;83.20;;;;;;5054274;28;20653;-47
2021/03/31 01:23:17;;;;;;;6.03;4.20;;;11.60;83.20;;;;;;5053818;28;20237;-58
2021/03/31 01:25:49;;;;;;;8.03;4.20;;;11.60;83.50;;;;;;5054722;28;20591;-55
2021/03/31 01:28:34;;;;;;;5.90;4.03;;;11.60;83.70;;;;;;5054969;28;20736;-58
2021/03/31 01:31:12;;;;;;;6.20;4.70;;;11.50;83.90;;;;;;5055716;28;20588;-49
2021/03/31 01:34:00;;;;;;;6.93;4.67;;;11.40;84.20;;;;;;5055430;28;20665;-58
2021/03/31 01:36:27;;;;;;;6.47;4.57;;;11.30;84.20;;;;;;5054882;28;20212;-48
2021/03/31 01:38:59;;;;;;;6.37;4.70;;;11.30;84.10;;;;;;5054575;28;20209;-47
2021/03/31 01:41:25;;;;;;;6.03;4.10;;;11.30;84.20;;;;;;5054427;28;20217;-50
2021/03/31 01:43:54;;;;;;;5.40;3.87;;;11.30;84.50;;;;;;5055437;28;20168;-49
2021/03/31 01:46:25;;;;;;;9.77;4.43;;;11.30;85.00;;;;;;5054483;28;20195;-50
2021/03/31 01:48:51;;;;;;;7.00;4.50;;;11.30;84.90;;;;;;5055014;28;20167;-48
2021/03/31 01:51:19;;;;;;;6.33;4.30;;;11.30;84.70;;;;;;5054448;28;20209;-57
2021/03/31 01:53:45;;;;;;;5.30;4.00;;;11.20;84.70;;;;;;5054465;28;20171;-48
2021/03/31 01:56:12;;;;;;;6.97;4.50;;;11.20;85.40;;;;;;5054184;28;20199;-47
2021/03/31 01:58:39;;;;;;;10.77;4.47;;;11.10;85.70;;;;;;5054245;28;20175;-54
2021/03/31 02:01:06;;;;;;;8.50;4.27;;;11.10;85.60;;;;;;5054371;28;20167;-54
2021/03/31 02:03:32;;;;;;;6.67;4.43;;;11.10;85.70;;;;;;5054684;28;20171;-49
2021/03/31 02:05:59;;;;;;;8.23;4.33;;;11.10;85.70;;;;;;5054465;28;20277;-57
2021/03/31 02:08:26;;;;;;;5.67;4.17;;;10.90;85.70;;;;;;5054002;28;20282;-56
2021/03/31 02:10:52;;;;;;;7.13;4.27;;;10.90;86.00;;;;;;5054090;28;20178;-54
2021/03/31 02:13:19;;;;;;;5.17;3.93;;;11.90;87.20;;;;;;5053973;28;20250;-54
2021/03/31 02:15:48;;;;;;;5.77;4.43;;;10.90;86.30;;;;;;5054310;28;20191;-55
2021/03/31 02:18:16;;;;;;;6.67;4.00;;;10.90;86.40;;;;;;5054031;28;20258;-56
2021/03/31 02:20:44;;;;;;;5.30;4.63;;;10.90;86.70;;;;;;5053946;28;20182;-58
2021/03/31 02:23:10;;;;;;;5.57;4.10;;;10.80;86.70;;;;;;5053884;28;20594;-58
2021/03/31 02:25:36;;;;;;;6.83;4.43;;;10.80;86.50;;;;;;5053906;28;20234;-55
2021/03/31 02:28:03;;;;;;;7.67;4.27;;;10.80;86.40;;;;;;5054236;28;20230;-58
2021/03/31 02:30:30;;;;;;;7.97;4.30;;;10.80;86.30;;;;;;5053974;28;20168;-58
2021/03/31 02:33:03;;;;;;;6.83;4.43;;;10.80;86.50;;;;;;5053635;28;20221;-59
2021/03/31 02:35:30;;;;;;;9.43;4.37;;;10.90;87.00;;;;;;5054174;28;20246;-58
2021/03/31 02:38:01;;;;;;;7.03;4.37;;;10.80;86.90;;;;;;5053835;28;20269;-59
2021/03/31 02:40:28;;;;;;;6.17;4.10;;;10.70;86.90;;;;;;5053802;28;20167;-58
2021/03/31 02:42:56;;;;;;;7.17;4.20;;;10.70;87.10;;;;;;5053873;28;20178;-54
2021/03/31 02:45:24;;;;;;;7.97;4.03;;;10.70;87.20;;;;;;5053752;28;20191;-57
2021/03/31 02:47:51;;;;;;;6.27;4.10;;;10.70;87.00;;;;;;5053769;28;20547;-50
2021/03/31 02:50:20;;;;;;;6.10;4.07;;;10.70;86.80;;;;;;5054206;28;20635;-55
2021/03/31 02:52:48;;;;;;;5.77;3.97;;;10.70;86.90;;;;;;5053385;28;20160;-51
2021/03/31 02:55:15;;;;;;;7.63;4.23;;;10.70;86.90;;;;;;5053759;28;20187;-58
2021/03/31 02:57:41;;;;;;;8.43;4.20;;;10.60;86.70;;;;;;5053806;28;20694;-48
2021/03/31 03:00:10;;;;;;;8.53;4.70;;;10.60;87.00;;;;;;5053613;28;20182;-47
2021/03/31 03:02:40;;;;;;;5.80;4.00;;;10.50;87.20;;;;;;5053758;28;20171;-47
2021/03/31 03:05:07;;;;;;;5.60;4.10;;;10.40;87.70;;;;;;5053599;28;20225;-54
2021/03/31 03:07:34;;;;;;;7.13;4.20;;;10.30;87.90;;;;;;5053147;28;20282;-57
2021/03/31 03:10:01;;;;;;;13.60;6.00;;;10.30;88.10;;;;;;5053624;28;20225;-54
2021/03/31 03:12:27;;;;;;;8.90;5.97;;;10.30;88.10;;;;;;5053711;28;20194;-55
2021/03/31 03:14:53;;;;;;;8.97;6.60;;;10.30;88.30;;;;;;5053333;28;20159;-59
2021/03/31 03:17:21;;;;;;;11.20;7.17;;;10.30;88.20;;;;;;5053917;28;20175;-47
2021/03/31 03:19:48;;;;;;;9.10;7.00;;;10.30;88.50;;;;;;5053620;28;20174;-47
2021/03/31 03:22:14;;;;;;;8.10;6.23;;;10.30;88.70;;;;;;5053356;28;20183;-48
2021/03/31 03:24:44;;;;;;;7.47;6.10;;;10.20;88.70;;;;;;5053527;28;20168;-50
2021/03/31 03:27:15;;;;;;;8.97;6.10;;;10.30;88.90;;;;;;5054263;28;20207;-60
2021/03/31 03:29:49;;;;;;;10.37;5.63;;;10.30;88.80;;;;;;5053963;28;20191;-56
2021/03/31 03:32:16;;;;;;;6.33;4.77;;;10.20;88.90;;;;;;5053091;28;20208;-50
2021/03/31 03:34:44;;;;;;;4.83;4.23;;;10.20;88.90;;;;;;5053209;28;20176;-55
2021/03/31 03:37:10;;;;;;;5.97;4.70;;;10.20;89.20;;;;;;5053236;28;20202;-48
2021/03/31 03:39:35;;;;;;;5.63;4.47;;;10.20;89.20;;;;;;5053375;28;20168;-56
2021/03/31 03:42:02;;;;;;;6.07;4.40;;;10.10;89.20;;;;;;5053168;28;20291;-59
2021/03/31 03:44:27;;;;;;;5.47;4.60;;;10.10;89.50;;;;;;5053578;28;20574;-52
2021/03/31 03:46:55;;;;;;;7.30;4.87;;;10.10;89.80;;;;;;5053406;28;20674;-55
2021/03/31 03:49:21;;;;;;;5.90;4.53;;;10.10;89.80;;;;;;5056797;28;20174;-48
2021/03/31 03:51:48;;;;;;;6.10;5.07;;;10.00;90.00;;;;;;5056830;28;20242;-48
2021/03/31 03:54:14;;;;;;;8.77;5.47;;;10.00;90.40;;;;;;5056595;28;20171;-58
2021/03/31 03:56:48;;;;;;;10.47;5.80;;;10.00;90.50;;;;;;5056591;28;20540;-54
2021/03/31 03:59:20;;;;;;;7.37;5.17;;;10.00;90.50;;;;;;5056646;28;20224;-60
2021/03/31 04:01:47;;;;;;;7.03;5.40;;;10.00;90.60;;;;;;5056688;28;20178;-58
2021/03/31 04:04:13;;;;;;;7.80;5.37;;;9.90;91.00;;;;;;5056832;28;20199;-55
2021/03/31 04:06:39;;;;;;;8.67;6.30;;;9.90;91.10;;;;;;5056383;28;20543;-48
2021/03/31 04:09:04;;;;;;;6.03;4.87;;;9.90;91.30;;;;;;5056263;28;20191;-49
2021/03/31 04:11:31;;;;;;;6.20;4.83;;;9.90;91.20;;;;;;5056209;28;20205;-56
2021/03/31 04:13:59;;;;;;;5.23;4.00;;;9.90;91.00;;;;;;5056169;28;20168;-54
2021/03/31 04:16:27;;;;;;;6.67;4.47;;;10.00;90.20;;;;;;5056429;28;20279;-59
2021/03/31 04:18:53;;;;;;;5.90;4.23;;;9.90;90.70;;;;;;5056119;28;20191;-49
2021/03/31 04:21:19;;;;;;;5.60;4.00;;;10.00;90.20;;;;;;5056208;28;20543;-57
2021/03/31 04:23:45;;;;;;;6.20;3.97;;;10.00;90.00;;;;;;5056062;28;20607;-51
2021/03/31 04:26:11;;;;;;;7.00;3.90;;;9.90;90.60;;;;;;5056128;28;20670;-58
2021/03/31 04:28:37;;;;;;;5.33;3.70;;;9.80;90.80;;;;;;5056092;28;20686;-47
2021/03/31 04:31:05;;;;;;;7.60;3.73;;;9.80;91.10;;;;;;5055574;28;20179;-53
2021/03/31 04:33:32;;;;;;;5.87;3.80;;;9.70;91.30;;;;;;5056094;28;20189;-48
2021/03/31 04:35:57;;;;;;;9.47;4.50;;;9.70;91.30;;;;;;5066339;28;20737;-59
2021/03/31 04:38:24;;;;;;;5.97;3.80;;;9.80;91.40;;;;;;5075799;28;20213;-50
2021/03/31 04:40:52;;;;;;;7.03;4.20;;;9.80;91.40;;;;;;5076102;28;20265;-48
2021/03/31 04:43:23;;;;;;;5.23;3.80;;;9.80;91.40;;;;;;5075835;28;20179;-48
2021/03/31 04:45:48;;;;;;;4.70;3.97;;;9.80;91.70;;;;;;5075651;28;20186;-52
2021/03/31 04:48:14;;;;;;;6.73;4.57;;;9.70;91.80;;;;;;5075455;28;20205;-47
2021/03/31 04:50:40;;;;;;;6.13;4.30;;;9.80;91.80;;;;;;5075311;28;20181;-48
2021/03/31 04:53:06;;;;;;;8.67;4.50;;;9.80;91.90;;;;;;5075495;28;20625;-52
2021/03/31 04:55:32;;;;;;;6.53;4.90;;;9.70;91.60;;;;;;5075527;28;20206;-48
2021/03/31 04:57:57;;;;;;;6.43;4.83;;;9.80;91.60;;;;;;5074475;28;20537;-56
2021/03/31 05:00:23;;;;;;;7.37;5.23;;;9.80;91.70;;;;;;5075387;28;20166;-56
2021/03/31 05:02:49;;;;;;;8.77;5.80;;;9.80;91.60;;;;;;5075256;28;20575;-53
2021/03/31 05:05:15;;;;;;;8.63;5.60;;;9.80;91.50;;;;;;5075066;28;20198;-47
2021/03/31 05:07:41;;;;;;;6.93;5.20;;;9.90;91.40;;;;;;5074912;28;20288;-56
2021/03/31 05:10:07;;;;;;;7.40;4.90;;;9.80;91.40;;;;;;5074807;28;20258;-56
2021/03/31 05:12:32;;;;;;;10.33;6.33;;;9.80;91.50;;;;;;5074610;28;20171;-58
2021/03/31 05:14:58;;;;;;;8.57;6.53;;;9.70;91.70;;;;;;5075090;28;20649;-55
2021/03/31 05:17:23;;;;;;;8.07;6.07;;;9.60;91.80;;;;;;5074699;28;20220;-49
2021/03/31 05:19:49;;;;;;;8.27;5.47;;;9.70;91.90;;;;;;5075600;28;20222;-55
2021/03/31 05:22:17;;;;;;;7.57;5.10;;;9.70;92.00;;;;;;5073960;28;20221;-49
2021/03/31 05:24:42;;;;;;;6.97;4.63;;;9.80;92.00;;;;;;5074621;28;20554;-52
2021/03/31 05:27:08;;;;;;;8.87;4.73;;;9.80;92.00;;;;;;5074450;28;20697;-47
2021/03/31 05:29:34;;;;;;;5.80;3.83;;;9.80;92.00;;;;;;5074668;28;20170;-53
2021/03/31 05:31:59;;;;;;;6.30;4.03;;;9.90;91.90;;;;;;5074769;28;20173;-49
2021/03/31 05:34:25;;;;;;;6.40;4.37;;;9.90;91.70;;;;;;5074957;28;20249;-48
2021/03/31 05:36:51;;;;;;;7.57;4.20;;;10.00;91.50;;;;;;5074396;28;20214;-47
2021/03/31 05:39:16;;;;;;;6.20;4.47;;;10.00;91.50;;;;;;5074542;28;20174;-49
2021/03/31 05:41:42;;;;;;;8.20;5.07;;;10.10;91.40;;;;;;5060502;28;20191;-49
2021/03/31 05:44:08;;;;;;;8.77;4.83;;;10.10;91.20;;;;;;5068965;28;20175;-48
2021/03/31 05:46:37;;;;;;;6.70;4.63;;;10.10;91.10;;;;;;5069381;28;20198;-48
2021/03/31 05:49:03;;;;;;;6.57;4.20;;;10.20;91.20;;;;;;5057372;28;20232;-51
2021/03/31 05:51:29;;;;;;;5.80;4.30;;;10.20;91.00;;;;;;5058922;28;20241;-49
2021/03/31 05:53:54;;;;;;;5.53;4.20;;;10.30;91.00;;;;;;5073421;28;20316;-52
2021/03/31 05:56:21;;;;;;;8.77;5.33;;;10.30;90.90;;;;;;5073928;28;20259;-47
2021/03/31 05:58:47;;;;;;;9.83;7.13;;;10.40;91.00;;;;;;5072997;28;20186;-56
2021/03/31 06:01:14;;;;;;;9.40;7.50;;;10.50;91.00;;;;;;5067501;28;20262;-50
2021/03/31 06:03:39;;;;;;;8.07;6.50;;;10.60;91.40;;;;;;5054497;28;20175;-48
2021/03/31 06:06:05;;;;;;;7.07;5.50;;;10.60;91.40;;;;;;5058359;28;20198;-57
2021/03/31 06:08:31;;;;;;;7.17;4.90;;;10.60;91.60;;;;;;5074013;28;20252;-57
2021/03/31 06:11:01;;;;;;;7.70;5.30;;;10.70;91.80;;;;;;5062091;28;20191;-57
2021/03/31 06:13:47;;;;;;;6.53;5.37;;;10.80;91.90;;;;;;5072679;28;20174;-53
2021/03/31 06:16:32;;;;;;;9.37;6.40;;;10.90;91.70;;;;;;5073184;28;20194;-56
2021/03/31 06:19:18;;;;;;;9.93;5.83;;;10.90;92.30;;;;;;5074610;28;20166;-56
2021/03/31 06:22:22;;;;;;;9.27;5.67;;;10.90;92.70;;;;;;5053670;28;20509;-48
2021/03/31 06:25:10;;;;;;;8.40;5.70;;;10.90;92.70;;;;;;5047173;28;20748;-48
2021/03/31 06:27:35;;;;;;;7.90;5.93;;;11.00;92.70;;;;;;5055091;28;20274;-55
2021/03/31 06:30:04;;;;;;;8.37;6.50;;;11.10;92.50;;;;;;5054704;28;20182;-57
2021/03/31 06:32:36;;;;;;;11.13;6.83;;;11.30;92.50;;;;;;5057953;28;20584;-57
2021/03/31 06:35:03;;;;;;;10.97;8.40;;;11.40;92.50;;;;;;5052983;28;20179;-58
2021/03/31 06:37:34;;;;;;;11.20;8.60;;;11.60;92.30;;;;;;5053618;28;20198;-51
2021/03/31 06:40:00;;;;;;;11.33;8.60;;;11.70;92.40;;;;;;5054028;28;20229;-56
2021/03/31 06:42:45;;;;;;;8.43;6.50;;;11.80;92.70;;;;;;5053572;28;20203;-57
2021/03/31 06:45:20;;;;;;;9.63;5.20;;;12.00;91.90;;;;;;5053919;28;20174;-49
2021/03/31 06:47:57;;;;;;;6.93;4.97;;;12.00;91.70;;;;;;5053648;28;20740;-59
2021/03/31 06:50:23;;;;;;;5.73;4.23;;;12.10;91.60;;;;;;5053697;28;20533;-59
2021/03/31 06:52:53;;;;;;;4.97;4.20;;;12.20;91.40;;;;;;5053682;28;20745;-55
2021/03/31 06:55:19;;;;;;;8.27;4.60;;;12.30;91.50;;;;;;5053841;28;20797;-57
2021/03/31 06:57:51;;;;;;;6.53;4.40;;;12.40;91.30;;;;;;5053632;28;20246;-48
2021/03/31 07:00:33;;;;;;;6.77;4.10;;;12.70;91.80;;;;;;5034929;28;20273;-55
2021/03/31 07:03:03;;;;;;;6.03;4.73;;;12.60;91.60;;;;;;5059178;28;20178;-48
2021/03/31 07:05:38;;;;;;;6.70;4.63;;;12.70;91.60;;;;;;5073541;28;20194;-49
2021/03/31 07:08:10;;;;;;;9.13;4.90;;;12.80;91.90;;;;;;5072572;28;20280;-47
2021/03/31 07:10:49;;;;;;;5.73;4.87;;;12.90;91.70;;;;;;5074633;28;20186;-49
2021/03/31 07:13:32;;;;;;;5.97;5.00;;;13.10;91.60;;;;;;5073559;28;20615;-48
2021/03/31 07:15:58;;;;;;;9.33;6.57;;;13.30;91.70;;;;;;5074433;28;20186;-47
2021/03/31 07:18:26;;;;;;;10.27;6.63;;;13.40;90.70;;;;;;5073176;28;20190;-49
2021/03/31 07:20:52;;;;;;;8.47;6.30;;;13.40;91.60;;;;;;5072589;28;20175;-55
2021/03/31 07:23:21;;;;;;;7.93;6.50;;;13.40;91.30;;;;;;5075676;28;20178;-52
2021/03/31 07:25:47;;;;;;;8.13;6.13;;;13.70;91.10;;;;;;5077323;28;20243;-48
2021/03/31 07:28:17;;;;;;;11.13;5.73;;;13.60;90.70;;;;;;5077698;28;20201;-59
2021/03/31 07:30:43;;;;;;;9.20;6.20;;;13.60;90.50;;;;;;5077542;28;20167;-60
2021/03/31 07:33:14;;;;;;;10.53;6.20;;;13.50;91.30;;;;;;5077131;28;20162;-58
2021/03/31 07:35:40;;;;;;;7.00;6.30;;;14.20;92.90;;;;;;5077799;28;20194;-49
2021/03/31 07:38:06;;;;;;;7.93;6.27;;;13.30;92.90;;;;;;5075982;28;20585;-51
2021/03/31 07:40:35;;;;;;;9.53;6.93;;;13.30;91.80;;;;;;5075128;28;20174;-58
2021/03/31 07:43:06;;;;;;;9.13;6.27;;;13.30;91.80;;;;;;5075184;28;20232;-48
2021/03/31 07:45:39;;;;;;;8.47;6.00;;;13.50;91.70;;;;;;5074621;28;20213;-58
2021/03/31 07:48:05;;;;;;;9.90;7.40;;;13.60;90.80;;;;;;5074666;28;20289;-54
2021/03/31 07:50:32;;;;;;;9.63;6.47;;;13.60;90.50;;;;;;5074570;28;20654;-48
2021/03/31 07:53:00;;;;;;;9.03;6.40;;;13.70;90.20;;;;;;5074313;28;20213;-56
2021/03/31 07:55:42;;;;;;;9.70;6.23;;;13.80;90.20;;;;;;5074832;28;20717;-48
2021/03/31 07:58:13;;;;;;;8.97;6.27;;;13.80;90.20;;;;;;5076030;28;20212;-47
2021/03/31 08:00:45;;;;;;;9.50;6.97;;;14.00;90.90;;;;;;5076479;28;20178;-47
2021/03/31 08:03:22;;;;;;;11.77;7.30;;;14.00;90.30;;;;;;5076642;28;20374;-52
2021/03/31 08:06:07;;;;;;;9.30;6.77;;;14.10;90.20;;;;;;5076867;28;20210;-47
2021/03/31 08:08:33;;;;;;;10.93;6.63;;;14.20;90.40;;;;;;5076804;28;20221;-47
2021/03/31 08:10:59;;;;;;;8.83;6.40;;;14.30;90.30;;;;;;5075407;28;20666;-54
2021/03/31 08:13:37;;;;;;;9.40;6.63;;;14.30;89.30;;;;;;5075902;28;20176;-57
2021/03/31 08:16:23;;;;;;;9.67;6.43;;;14.40;88.80;;;;;;5076223;28;20585;-46
2021/03/31 08:18:54;;;;;;;8.70;6.30;;;14.50;89.80;;;;;;5076121;28;20172;-47
2021/03/31 08:21:24;;;;;;;9.23;6.70;;;14.70;90.00;;;;;;5076365;28;20173;-56
2021/03/31 08:23:52;;;;;;;8.40;6.33;;;14.80;88.40;;;;;;5076467;28;20171;-54
2021/03/31 08:26:38;;;;;;;9.30;6.90;;;14.90;87.00;;;;;;5077694;28;20208;-59
2021/03/31 08:29:44;;;;;;;9.70;7.10;;;15.00;88.10;;;;;;5076359;28;20178;-49
2021/03/31 08:32:11;;;;;;;8.93;6.00;;;15.10;88.00;;;;;;5076204;28;20163;-59
2021/03/31 08:34:38;;;;;;;8.77;6.73;;;15.20;87.40;;;;;;5075238;28;20202;-58
2021/03/31 08:37:06;;;;;;;10.53;6.77;;;15.30;88.40;;;;;;5077488;28;20210;-49
2021/03/31 08:39:33;;;;;;;12.00;7.40;;;15.50;88.10;;;;;;5067787;28;20589;-54
2021/03/31 08:42:00;;;;;;;9.90;6.77;;;15.60;86.20;;;;;;5075746;28;20249;-56
2021/03/31 08:44:36;;;;;;;8.07;6.50;;;15.70;86.00;;;;;;5065875;28;20164;-58
2021/03/31 08:47:11;;;;;;;8.27;6.83;;;15.80;85.10;;;;;;5066702;28;20268;-50
2021/03/31 08:49:37;;;;;;;11.17;6.60;;;16.00;86.10;;;;;;5072121;28;20181;-59
2021/03/31 08:52:09;;;;;;;12.93;7.07;;;16.20;85.00;;;;;;5069777;28;20240;-47
2021/03/31 08:54:43;;;;;;;8.97;6.60;;;16.20;84.60;;;;;;5068431;28;20178;-58
2021/03/31 08:57:11;;;;;;;12.33;7.20;;;16.20;81.40;;;;;;5067721;28;20247;-54
2021/03/31 08:59:39;;;;;;;10.50;6.60;;;16.40;80.40;;;;;;5083278;28;20704;-47
2021/03/31 09:02:05;;;;;;;12.73;6.83;;;16.50;78.80;;;;;;5083851;28;20221;-58
2021/03/31 09:04:32;;;;;;;11.70;7.43;;;16.80;79.20;;;;;;5076421;28;20282;-50
2021/03/31 09:06:59;;;;;;;11.50;7.10;;;16.90;77.10;;;;;;5079888;28;20195;-56
2021/03/31 09:09:40;;;;;;;9.00;7.00;;;17.10;80.30;;;;;;5075244;28;20228;-57
2021/03/31 09:12:09;;;;;;;9.10;6.90;;;17.30;78.40;;;;;;5075122;28;20646;-58
2021/03/31 09:14:37;;;;;;;10.93;6.93;;;17.50;76.90;;;;;;5075148;28;20174;-58
2021/03/31 09:17:11;;;;;;;9.13;6.73;;;17.60;76.40;;;;;;5074882;28;20201;-50
2021/03/31 09:19:39;;;;;;;9.83;7.07;;;17.80;76.60;;;;;;5075173;28;20517;-47
2021/03/31 09:22:05;;;;;;;9.07;6.53;;;17.90;78.00;;;;;;5075128;28;20235;-49
2021/03/31 09:24:32;;;;;;;8.57;6.53;;;17.90;79.10;;;;;;5072141;28;20536;-48
2021/03/31 09:27:08;;;;;;;10.43;6.80;;;17.90;79.50;;;;;;5066178;28;20206;-59
2021/03/31 09:29:36;;;;;;;10.67;7.50;;;18.10;82.40;;;;;;5070256;28;20176;-48
2021/03/31 09:32:03;;;;;;;10.70;7.50;;;18.10;82.60;;;;;;5090604;28;20650;-57
2021/03/31 09:34:29;;;;;;;12.63;7.80;;;18.20;78.70;;;;;;5077384;28;20214;-53
2021/03/31 09:37:15;;;;;;;10.60;7.30;;;18.30;79.50;;;;;;5072733;28;20311;-58
2021/03/31 09:39:49;;;;;;;10.33;7.43;;;18.60;77.30;;;;;;5071266;28;20173;-51
2021/03/31 09:42:18;;;;;;;8.87;7.07;;;18.70;75.90;;;;;;5065654;28;20184;-54
2021/03/31 09:44:43;;;;;;;13.23;8.10;;;19.00;76.80;;;;;;5068110;28;20267;-58
2021/03/31 09:47:10;;;;;;;11.40;7.67;;;19.00;75.40;;;;;;5063241;28;20680;-54
2021/03/31 09:49:36;;;;;;;10.03;7.73;;;19.10;76.70;;;;;;5070883;28;20193;-58
2021/03/31 09:52:04;;;;;;;11.80;8.17;;;19.20;77.10;;;;;;5069734;28;20642;-51
2021/03/31 09:54:30;;;;;;;14.03;8.33;;;19.30;75.30;;;;;;5071977;28;20523;-56
2021/03/31 09:56:56;;;;;;;12.67;8.07;;;19.50;73.10;;;;;;5072805;28;20209;-58
2021/03/31 09:59:23;;;;;;;8.77;7.10;;;19.60;75.40;;;;;;5073668;28;20236;-50
2021/03/31 10:01:49;;;;;;;10.73;7.93;;;19.70;74.10;;;;;;5073436;28;20504;-59
2021/03/31 10:04:15;;;;;;;14.30;8.17;;;20.20;76.30;;;;;;5073564;28;20265;-49
2021/03/31 10:06:42;;;;;;;9.43;7.23;;;20.10;72.00;;;;;;5073906;28;20197;-57
2021/03/31 10:09:17;;;;;;;12.57;8.57;;;20.30;76.40;;;;;;5074289;28;20170;-58
2021/03/31 10:11:43;;;;;;;13.67;7.97;;;20.60;72.60;;;;;;5074261;28;20163;-58
2021/03/31 10:14:22;;;;;;;11.73;7.57;;;20.80;74.30;;;;;;5073896;28;20227;-48
2021/03/31 10:16:49;;;;;;;12.83;8.37;;;21.00;73.20;;;;;;5074340;28;20720;-59
2021/03/31 10:19:16;;;;;;;10.73;8.30;;;21.30;73.20;;;;;;5074436;28;20183;-59
2021/03/31 10:21:43;;;;;;;12.38;8.15;;;21.60;73.20;;;;;;5073739;28;20218;-54
2021/03/31 10:24:11;;;;;;;14.50;8.20;;;22.00;69.60;;;;;;5073912;28;20648;-49
2021/03/31 10:26:38;;;;;;;9.25;8.00;;;22.30;69.80;;;;;;5072300;28;20197;-59
2021/03/31 10:29:18;;;;;;;9.00;7.68;;;22.70;68.00;;;;;;5073162;28;20586;-49
2021/03/31 10:31:46;;;;;;;12.80;8.57;;;23.10;66.90;;;;;;5073492;28;20689;-51
2021/03/31 10:34:14;;;;;;;11.30;7.63;;;23.60;64.70;;;;;;5074069;28;20634;-50
2021/03/31 10:37:11;;;;;;;10.52;8.38;;;23.80;64.10;;;;;;5073931;28;20282;-48
2021/03/31 10:51:06;;;;;;;10.52;7.35;;;26.60;57.70;;;;;;5073792;28;20554;-59
2021/03/31 10:53:37;;;;;;;10.23;7.78;;;27.10;55.80;;;;;;5073874;28;20166;-48
2021/03/31 10:56:04;;;;;;;10.73;7.05;;;27.80;58.20;;;;;;5074520;28;20186;-50
2021/03/31 10:58:29;;;;;;;11.15;7.78;;;28.30;54.50;;;;;;5077575;28;20650;-58
2021/03/31 11:00:55;;;;;;;11.20;7.90;;;29.30;52.00;;;;;;5077775;28;20217;-57
2021/03/31 11:03:23;;;;;;;10.57;7.30;;;30.30;51.30;;;;;;5077426;28;20257;-58
2021/03/31 11:05:49;;;;;;;9.93;8.43;;;31.10;50.20;;;;;;5077804;28;20222;-50
2021/03/31 11:08:14;;;;;;;10.40;7.38;;;31.60;47.30;;;;;;5078097;28;20222;-50
2021/03/31 11:10:40;;;;;;;9.20;7.10;;;33.00;47.70;;;;;;5077117;28;20163;-53
2021/03/31 11:13:06;;;;;;;10.65;7.30;;;34.10;45.90;;;;;;5077662;28;20186;-59
2021/03/31 11:15:31;;;;;;;10.77;7.65;;;35.50;44.90;;;;;;5077145;28;20240;-58
2021/03/31 11:21:07;;;;;;;8.95;6.75;;;37.30;40.30;;;;;;5054287;28;20596;-58
2021/03/31 11:26:17;;;;;;;9.32;7.10;;;39.50;36.60;;;;;;5077016;28;20228;-53
2021/03/31 11:28:43;;;;;;;10.70;7.07;;;40.80;35.20;;;;;;5077038;28;20622;-59
2021/03/31 11:31:09;;;;;;;9.38;7.38;;;41.50;35.40;;;;;;5076044;28;20182;-59
2021/03/31 11:33:35;;;;;;;10.95;7.10;;;42.20;33.20;;;;;;5076816;28;20216;-60
2021/03/31 11:36:01;;;;;;;8.63;6.57;;;43.10;33.40;;;;;;5076358;28;20225;-55
2021/03/31 11:38:27;;;;;;;10.48;6.90;;;44.60;31.90;;;;;;5076574;28;20174;-59
2021/03/31 11:40:53;;;;;;;7.20;6.47;;;44.90;29.50;;;;;;5077028;28;20626;-57
2021/03/31 11:43:19;;;;;;;7.70;6.18;;;45.30;28.80;;;;;;5077427;28;20232;-60
2021/03/31 11:45:47;;;;;;;6.80;5.88;;;45.90;28.70;;;;;;5077135;28;20201;-55
2021/03/31 11:48:13;;;;;;;11.32;7.07;;;46.70;28.80;;;;;;5076714;28;20538;-52
2021/03/31 11:50:38;;;;;;;6.97;5.70;;;47.10;27.30;;;;;;5076697;28;20257;-53
2021/03/31 11:53:04;;;;;;;7.00;5.97;;;45.90;26.50;;;;;;5076702;28;20629;-61
2021/03/31 11:55:30;;;;;;;7.45;6.45;;;45.10;26.90;;;;;;5076737;28;20202;-61
2021/03/31 11:57:56;;;;;;;6.35;5.40;;;45.10;27.40;;;;;;5076821;28;20198;-61
2021/03/31 12:00:22;;;;;;;7.53;5.38;;;45.40;27.30;;;;;;5076879;28;20166;-54
2021/03/31 12:02:48;;;;;;;8.57;5.57;;;46.30;27.30;;;;;;5076338;28;20545;-56
2021/03/31 12:05:14;;;;;;;7.32;6.40;;;46.30;27.50;;;;;;5076365;28;20653;-55
2021/03/31 12:07:40;;;;;;;9.80;7.45;;;46.00;27.40;;;;;;5075196;28;20170;-55
2021/03/31 12:10:08;;;;;;;5.90;5.30;;;45.50;28.00;;;;;;5064693;28;20211;-53
2021/03/31 12:12:35;;;;;;;7.45;5.60;;;44.90;26.50;;;;;;5076541;28;20256;-56
2021/03/31 12:15:01;;;;;;;7.05;5.95;;;43.80;27.30;;;;;;5076709;28;20204;-61
2021/03/31 12:17:26;;;;;;;6.70;5.28;;;43.50;26.70;;;;;;5076901;28;20201;-61
2021/03/31 12:19:52;;;;;;;6.65;5.47;;;43.80;25.80;;;;;;5076461;28;20227;-49
2021/03/31 12:22:18;;;;;;;7.82;5.57;;;43.30;27.20;;;;;;5076263;28;20173;-51
2021/03/31 12:24:43;;;;;;;7.05;4.35;;;41.50;27.80;;;;;;5076213;28;20170;-52
2021/03/31 12:27:10;;;;;;;4.28;3.50;;;40.90;26.90;;;;;;5076110;28;20666;-59
2021/03/31 12:29:36;;;;;;;6.03;4.82;;;41.10;26.30;;;;;;5076273;28;20177;-55
2021/03/31 12:32:02;;;;;;;7.70;4.88;;;41.80;26.60;;;;;;5076030;28;20300;-53
2021/03/31 12:34:29;;;;;;;6.00;4.47;;;41.50;25.50;;;;;;5072873;28;20178;-55
2021/03/31 12:36:55;;;;;;;8.70;7.50;;;41.80;27.00;;;;;;5075955;28;20749;-53
2021/03/31 12:39:21;;;;;;;7.90;6.20;;;41.00;28.60;;;;;;5060548;28;20179;-57
2021/03/31 12:41:47;;;;;;;7.47;5.90;;;39.50;28.80;;;;;;5056077;28;20224;-58
2021/03/31 12:44:13;;;;;;;7.72;5.57;;;38.70;29.80;;;;;;5075613;28;20178;-60
2021/03/31 12:46:38;;;;;;;7.40;6.70;;;38.80;29.80;;;;;;5075627;28;20232;-52
2021/03/31 12:49:04;;;;;;;10.40;7.47;;;39.20;28.90;;;;;;5075836;28;20591;-60
2021/03/31 12:51:34;;;;;;;8.63;7.22;;;39.70;28.80;;;;;;5075290;28;20208;-60
2021/03/31 12:54:08;;;;;;;7.70;6.50;;;39.10;28.90;;;;;;5075664;28;20538;-51
2021/03/31 12:56:34;;;;;;;7.57;5.97;;;38.70;29.90;;;;;;5075444;28;20610;-60
2021/03/31 12:59:00;;;;;;;8.75;7.20;;;37.50;31.70;;;;;;5075455;28;20684;-50
2021/03/31 13:01:27;;;;;;;7.40;6.55;;;37.70;30.30;;;;;;5075253;28;20190;-60
2021/03/31 13:03:53;;;;;;;8.05;7.25;;;37.50;31.60;;;;;;5075575;28;20197;-49
2021/03/31 13:06:21;;;;;;;8.45;5.93;;;36.00;32.20;;;;;;5075150;28;20193;-53
2021/03/31 13:08:50;;;;;;;7.75;6.43;;;35.00;31.90;;;;;;5075238;28;20660;-55
2021/03/31 13:11:15;;;;;;;10.27;5.93;;;34.00;33.60;;;;;;5075194;28;20174;-58